Blair, Texas
Current Conditions -  °F | °C
As of 11:58 AM on Sunday 21 Dec 2014 (Local Time) from KDYS Reporting Station
Clear Clear  
Wind Chill: 56°   Ceiling: Unl
Heat Index: 56°   Visibility: 10mi
Dew Point: 42°   Wind: 17mph
Humidity: 61%   Direction: 220°SW
Pressure: 29.9"   Gusts: NA
Location:  32.3913°N, 100.009°W
Report Text: KDYS 211758Z AUTO 22015KT 10SM CLR 13/06 A2990 RMK AO2 SLP117 T01330058 10134 20080 57024 $
Loading
Personal Weather Stations






























Interactive Weather Map New forecast layout! Learn more

10-Day Weather Forecast

Advertisements
Track Severe Weather on mobile